createdAt,value
2022-12-11T00:00:39.690Z,100931.31
2022-12-11T00:03:10.209Z,100944.84
2022-12-11T00:05:40.431Z,100939.56
2022-12-11T00:08:07.353Z,100943.66
2022-12-11T00:10:37.642Z,100936.97
2022-12-11T00:13:05.031Z,100946.88
2022-12-11T00:15:31.952Z,100935.16
2022-12-11T00:17:58.869Z,100949.31
2022-12-11T00:20:25.755Z,100956.81
2022-12-11T00:22:52.650Z,100938.13
2022-12-11T00:25:19.511Z,100939.47
2022-12-11T00:27:47.337Z,100939.22
2022-12-11T00:30:14.832Z,100936.69
2022-12-11T00:32:41.874Z,100940.78
2022-12-11T00:35:09.547Z,100945.53
2022-12-11T00:37:36.787Z,100941.78
2022-12-11T00:40:03.970Z,100950.72
2022-12-11T00:42:30.810Z,100950.44
2022-12-11T00:44:58.010Z,100942.69
2022-12-11T00:47:24.934Z,100953.38
2022-12-11T00:49:52.380Z,100954.00
2022-12-11T00:52:19.231Z,100945.47
2022-12-11T00:54:46.089Z,100958.72
2022-12-11T00:57:12.952Z,100943.25
2022-12-11T00:59:39.830Z,100945.47
2022-12-11T01:02:06.732Z,100938.50
2022-12-11T01:04:36.032Z,100946.19
2022-12-11T01:07:02.899Z,100944.22
2022-12-11T01:09:48.780Z,100949.13
2022-12-11T01:12:15.654Z,100940.41
2022-12-11T01:14:42.529Z,100931.00
2022-12-11T01:17:09.432Z,100929.88
2022-12-11T01:19:36.518Z,100933.16
2022-12-11T01:22:03.492Z,100915.44
2022-12-11T01:24:30.369Z,100927.84
2022-12-11T01:26:57.289Z,100921.88
2022-12-11T01:29:24.110Z,100908.34
2022-12-11T01:31:50.970Z,100899.53
2022-12-11T01:34:17.813Z,100894.38
2022-12-11T01:36:45.133Z,100905.22
2022-12-11T01:39:12.292Z,100900.25
2022-12-11T01:41:39.269Z,100883.50
2022-12-11T01:44:29.051Z,100906.66
2022-12-11T01:46:55.952Z,100883.03
2022-12-11T01:49:24.152Z,100898.75
2022-12-11T01:51:57.451Z,100903.97
2022-12-11T01:54:24.431Z,100898.72
2022-12-11T01:56:52.430Z,100890.22
2022-12-11T01:59:21.070Z,100890.22
2022-12-11T02:01:54.992Z,100876.63
2022-12-11T02:04:21.911Z,100882.41
2022-12-11T02:06:50.750Z,100882.34
2022-12-11T02:09:32.110Z,100881.44
2022-12-11T02:12:20.690Z,100888.06
2022-12-11T02:15:00.030Z,100879.44
2022-12-11T02:17:33.951Z,100875.06
2022-12-11T02:20:06.816Z,100872.44
2022-12-11T02:22:51.970Z,100877.50
2022-12-11T02:25:31.370Z,100875.13
2022-12-11T02:28:26.190Z,100879.03
2022-12-11T02:30:59.999Z,100879.00
2022-12-11T02:33:34.472Z,100876.53
2022-12-11T02:36:01.309Z,100875.84
2022-12-11T02:38:36.109Z,100884.00
2022-12-11T02:41:03.070Z,100881.34
2022-12-11T02:43:29.999Z,100894.91
2022-12-11T02:45:56.908Z,100883.09
2022-12-11T02:48:23.750Z,100870.31
2022-12-11T02:50:53.171Z,100888.72
2022-12-11T02:53:21.869Z,100892.09
2022-12-11T02:55:50.570Z,100870.94
2022-12-11T02:58:23.292Z,100890.34
2022-12-11T03:00:50.392Z,100886.03
2022-12-11T03:03:17.349Z,100898.72
2022-12-11T03:05:44.209Z,100894.31
2022-12-11T03:08:11.298Z,100886.56
2022-12-11T03:10:38.291Z,100890.78
2022-12-11T03:13:05.209Z,100869.56
2022-12-11T03:15:58.216Z,100880.38
2022-12-11T03:18:49.210Z,100876.19
2022-12-11T03:21:24.674Z,100881.34
2022-12-11T03:24:15.571Z,100877.66
2022-12-11T03:26:56.001Z,100866.53
2022-12-11T03:29:45.592Z,100871.63
2022-12-11T03:32:20.131Z,100875.81
2022-12-11T03:34:58.283Z,100874.19
2022-12-11T03:37:26.436Z,100876.63
2022-12-11T03:39:56.111Z,100856.53
2022-12-11T03:42:23.010Z,100859.94
2022-12-11T03:44:50.111Z,100854.00
2022-12-11T03:47:21.070Z,100852.47
2022-12-11T03:49:48.271Z,100845.69
2022-12-11T03:52:15.129Z,100866.00
2022-12-11T03:54:42.650Z,100866.00
2022-12-11T03:57:10.369Z,100850.75
2022-12-11T03:59:37.210Z,100855.72
2022-12-11T04:02:11.102Z,100855.06
2022-12-11T04:04:38.842Z,100866.03
2022-12-11T04:07:05.751Z,100850.97
2022-12-11T04:09:32.649Z,100855.25
2022-12-11T04:11:59.676Z,100852.88
2022-12-11T04:14:45.169Z,100859.50
2022-12-11T04:17:12.211Z,100856.31
2022-12-11T04:19:57.511Z,100842.06
2022-12-11T04:22:42.591Z,100839.47
2022-12-11T04:25:09.917Z,100846.28
2022-12-11T04:27:49.049Z,100847.03
2022-12-11T04:30:21.230Z,100845.44
2022-12-11T04:32:48.110Z,100847.25
2022-12-11T04:35:15.090Z,100861.44
2022-12-11T04:37:41.973Z,100857.06
2022-12-11T04:40:12.016Z,100855.31
2022-12-11T04:42:38.930Z,100855.97
2022-12-11T04:45:06.270Z,100856.78
2022-12-11T04:47:33.170Z,100857.38
2022-12-11T04:50:00.014Z,100842.16
2022-12-11T04:52:26.889Z,100850.41
2022-12-11T04:54:53.730Z,100848.75
2022-12-11T04:57:21.723Z,100850.25
2022-12-11T04:59:48.711Z,100820.88
2022-12-11T05:02:16.069Z,100839.09
2022-12-11T05:04:43.130Z,100839.22
2022-12-11T05:07:10.050Z,100835.75
2022-12-11T05:09:37.089Z,100832.28
2022-12-11T05:12:04.009Z,100834.09
2022-12-11T05:14:32.570Z,100836.38
2022-12-11T05:16:59.913Z,100827.13
2022-12-11T05:19:27.016Z,100838.06
2022-12-11T05:21:53.890Z,100822.97
2022-12-11T05:24:20.810Z,100832.00
2022-12-11T05:26:47.651Z,100827.78
2022-12-11T05:29:14.531Z,100833.53
2022-12-11T05:31:41.680Z,100839.44
2022-12-11T05:34:08.591Z,100828.50
2022-12-11T05:36:35.530Z,100833.38
2022-12-11T05:39:03.080Z,100819.06
2022-12-11T05:41:31.589Z,100819.56
2022-12-11T05:43:58.569Z,100812.69
2022-12-11T05:46:26.857Z,100810.25
2022-12-11T05:48:58.493Z,100801.75
2022-12-11T05:51:25.431Z,100793.16
2022-12-11T05:53:52.711Z,100804.75
2022-12-11T05:56:21.690Z,100795.44
2022-12-11T05:58:48.751Z,100799.69
2022-12-11T06:01:23.510Z,100800.94
2022-12-11T06:03:50.330Z,100796.75
2022-12-11T06:06:17.389Z,100799.78
2022-12-11T06:08:44.310Z,100803.16
2022-12-11T06:11:13.090Z,100802.16
2022-12-11T06:13:39.971Z,100794.50
2022-12-11T06:16:07.388Z,100800.19
2022-12-11T06:18:55.837Z,100795.88
2022-12-11T06:21:30.066Z,100802.56
2022-12-11T06:23:58.884Z,100791.44
2022-12-11T06:26:25.932Z,100794.63
2022-12-11T06:28:52.830Z,100772.66
2022-12-11T06:31:19.865Z,100783.44
2022-12-11T06:33:46.889Z,100787.50
2022-12-11T06:36:16.350Z,100793.28
2022-12-11T06:38:43.291Z,100790.56
2022-12-11T06:41:10.289Z,100786.16
2022-12-11T06:43:38.310Z,100787.81
2022-12-11T06:46:09.733Z,100796.19
2022-12-11T06:48:36.810Z,100782.63
2022-12-11T06:51:07.752Z,100805.25
2022-12-11T06:53:34.730Z,100804.19
2022-12-11T06:56:06.071Z,100807.59
2022-12-11T06:58:34.369Z,100805.94
2022-12-11T07:01:02.214Z,100788.66
2022-12-11T07:03:29.330Z,100807.09
2022-12-11T07:06:01.354Z,100797.00
2022-12-11T07:08:29.888Z,100797.47
2022-12-11T07:11:09.029Z,100802.47
2022-12-11T07:13:36.053Z,100794.81
2022-12-11T07:16:04.663Z,100797.06
2022-12-11T07:18:34.889Z,100803.78
2022-12-11T07:21:01.709Z,100791.88
2022-12-11T07:23:28.950Z,100787.44
2022-12-11T07:25:56.349Z,100789.97
2022-12-11T07:28:23.489Z,100779.56
2022-12-11T07:30:50.371Z,100786.94
2022-12-11T07:33:17.252Z,100785.09
2022-12-11T07:35:44.711Z,100782.38
2022-12-11T07:38:11.731Z,100773.00
2022-12-11T07:40:38.629Z,100777.91
2022-12-11T07:43:05.490Z,100772.84
2022-12-11T07:45:32.553Z,100770.06
2022-12-11T07:47:59.489Z,100769.09
2022-12-11T07:50:26.312Z,100764.78
2022-12-11T07:52:53.211Z,100779.09
2022-12-11T07:55:20.129Z,100758.72
2022-12-11T07:57:47.031Z,100756.16
2022-12-11T08:00:14.332Z,100770.19
2022-12-11T08:02:41.227Z,100770.13
2022-12-11T08:05:09.043Z,100767.63
2022-12-11T08:07:36.159Z,100775.81
2022-12-11T08:10:03.991Z,100779.13
2022-12-11T08:12:30.942Z,100787.38
2022-12-11T08:14:57.884Z,100777.31
2022-12-11T08:17:30.089Z,100791.38
2022-12-11T08:19:58.802Z,100765.25
2022-12-11T08:22:25.801Z,100778.66
2022-12-11T08:24:52.680Z,100782.81
2022-12-11T08:27:19.600Z,100792.38
2022-12-11T08:29:47.619Z,100795.78
2022-12-11T08:32:16.930Z,100791.03
2022-12-11T08:34:44.375Z,100800.25
2022-12-11T08:37:11.403Z,100803.84
2022-12-11T08:39:38.278Z,100807.31
2022-12-11T08:42:05.397Z,100821.97
2022-12-11T08:44:32.270Z,100815.41
2022-12-11T08:46:59.136Z,100808.13
2022-12-11T08:49:28.676Z,100819.88
2022-12-11T08:51:59.618Z,100802.28
2022-12-11T08:54:26.489Z,100827.66
2022-12-11T08:56:57.738Z,100821.84
2022-12-11T08:59:25.887Z,100827.81
2022-12-11T09:01:52.924Z,100825.41
2022-12-11T09:04:19.815Z,100807.84
2022-12-11T09:06:46.730Z,100810.09
2022-12-11T09:09:13.629Z,100806.69
2022-12-11T09:11:40.728Z,100804.50
2022-12-11T09:14:08.367Z,100816.25
2022-12-11T09:16:37.957Z,100807.16
2022-12-11T09:19:04.970Z,100818.88
2022-12-11T09:21:31.852Z,100807.38
2022-12-11T09:23:59.976Z,100812.22
2022-12-11T09:26:27.748Z,100801.19
2022-12-11T09:28:55.129Z,100800.16
2022-12-11T09:31:25.849Z,100796.63
2022-12-11T09:33:55.218Z,100791.69
2022-12-11T09:36:22.169Z,100776.53
2022-12-11T09:38:49.130Z,100790.53
2022-12-11T09:41:22.098Z,100796.47
2022-12-11T09:44:11.529Z,100788.63
2022-12-11T09:46:38.426Z,100800.63
2022-12-11T09:49:05.450Z,100774.41
2022-12-11T09:51:50.432Z,100786.00
2022-12-11T09:54:17.392Z,100784.09
2022-12-11T09:57:23.174Z,100789.53
2022-12-11T10:00:11.552Z,100786.03
2022-12-11T10:03:07.068Z,100770.50
2022-12-11T10:05:52.837Z,100776.47
2022-12-11T10:08:41.549Z,100771.00
2022-12-11T10:11:45.609Z,100774.31
2022-12-11T10:14:18.340Z,100776.84
2022-12-11T10:16:53.268Z,100771.50
2022-12-11T10:19:26.049Z,100768.19
2022-12-11T10:21:52.911Z,100780.66
2022-12-11T10:25:12.933Z,100774.53
2022-12-11T10:27:33.812Z,100766.69
2022-12-11T10:30:07.932Z,100758.88
2022-12-11T10:32:46.270Z,100769.63
2022-12-11T10:35:25.750Z,100756.56
2022-12-11T10:37:55.549Z,100758.06
2022-12-11T10:40:22.430Z,100747.56
2022-12-11T10:42:53.870Z,100740.75
2022-12-11T10:45:20.829Z,100726.94
2022-12-11T10:47:47.692Z,100718.03
2022-12-11T10:50:26.615Z,100712.69
2022-12-11T10:52:53.550Z,100716.41
2022-12-11T10:55:29.028Z,100703.00
2022-12-11T10:58:04.035Z,100699.84
2022-12-11T11:00:39.038Z,100701.25
2022-12-11T11:03:24.669Z,100695.34
2022-12-11T11:06:20.248Z,100670.28
2022-12-11T11:08:52.033Z,100673.91
2022-12-11T11:11:38.368Z,100676.16
2022-12-11T11:14:24.048Z,100680.31
2022-12-11T11:16:52.590Z,100675.06
2022-12-11T11:19:29.509Z,100667.56
2022-12-11T11:22:07.655Z,100679.22
2022-12-11T11:24:40.068Z,100669.72
2022-12-11T11:27:14.596Z,100662.78
2022-12-11T11:29:41.429Z,100662.06
2022-12-11T11:32:17.571Z,100646.75
2022-12-11T11:34:44.409Z,100637.34
2022-12-11T11:37:33.199Z,100657.47
2022-12-11T11:40:21.710Z,100653.28
2022-12-11T11:43:39.833Z,100647.31
2022-12-11T11:46:27.467Z,100640.19
2022-12-11T11:48:59.495Z,100635.44
2022-12-11T11:52:09.903Z,100631.16
2022-12-11T11:54:55.457Z,100632.19
2022-12-11T11:57:39.189Z,100620.94
2022-12-11T12:00:14.714Z,100625.09
2022-12-11T12:02:41.878Z,100621.09
2022-12-11T12:05:15.145Z,100626.75
2022-12-11T12:08:00.657Z,100625.94
2022-12-11T12:10:36.892Z,100627.56
2022-12-11T12:13:54.564Z,100616.50
2022-12-11T12:17:00.132Z,100617.69
2022-12-11T12:19:32.812Z,100613.09
2022-12-11T12:22:01.073Z,100596.56
2022-12-11T12:24:41.322Z,100606.63
2022-12-11T12:27:52.879Z,100611.59
2022-12-11T12:30:23.042Z,100600.81
2022-12-11T12:33:06.142Z,100593.16
2022-12-11T12:35:37.709Z,100593.34
2022-12-11T12:38:44.005Z,100607.44
2022-12-11T12:41:35.398Z,100600.56
2022-12-11T12:44:21.005Z,100603.97
2022-12-11T12:47:20.368Z,100590.88
2022-12-11T12:49:48.766Z,100596.78
2022-12-11T12:52:35.387Z,100589.03
2022-12-11T12:55:24.037Z,100564.78
2022-12-11T12:58:05.732Z,100589.19
2022-12-11T13:00:34.124Z,100569.00
2022-12-11T13:03:16.049Z,100575.94
2022-12-11T13:05:45.074Z,100570.41
2022-12-11T13:08:12.620Z,100587.19
2022-12-11T13:10:41.867Z,100584.03
2022-12-11T13:13:35.534Z,100584.03
2022-12-11T13:16:21.123Z,100578.97
2022-12-11T13:18:48.386Z,100567.50
2022-12-11T13:21:34.812Z,100580.88
2022-12-11T13:24:28.214Z,100580.06
2022-12-11T13:26:55.510Z,100574.25
2022-12-11T13:29:39.474Z,100575.91
2022-12-11T13:32:09.206Z,100580.13
2022-12-11T13:34:43.100Z,100565.94
2022-12-11T13:37:33.168Z,100559.56
2022-12-11T13:40:04.304Z,100573.66
2022-12-11T13:42:49.576Z,100572.09
2022-12-11T13:45:27.388Z,100577.34
2022-12-11T13:47:56.705Z,100578.28
2022-12-11T13:50:29.259Z,100574.03
2022-12-11T13:52:57.764Z,100559.16
2022-12-11T13:55:34.457Z,100561.19
2022-12-11T13:58:01.413Z,100576.22
2022-12-11T14:00:33.114Z,100575.28
2022-12-11T14:03:02.454Z,100560.19
2022-12-11T14:05:29.364Z,100573.63
2022-12-11T14:07:57.230Z,100568.59
2022-12-11T14:10:25.582Z,100572.16
2022-12-11T14:13:22.590Z,100558.03
2022-12-11T14:15:49.450Z,100565.59
2022-12-11T14:18:27.701Z,100546.22
2022-12-11T14:21:21.468Z,100557.13
2022-12-11T14:23:58.736Z,100541.34
2022-12-11T14:26:37.972Z,100547.91
2022-12-11T14:29:05.637Z,100533.78
2022-12-11T14:31:35.756Z,100521.41
2022-12-11T14:34:19.242Z,100543.16
2022-12-11T14:36:46.505Z,100522.59
2022-12-11T14:39:50.521Z,100544.34
2022-12-11T14:42:21.828Z,100543.59
2022-12-11T14:44:49.957Z,100504.94
2022-12-11T14:47:22.112Z,100540.63
2022-12-11T14:49:51.808Z,100540.53
2022-12-11T14:52:20.624Z,100538.06
2022-12-11T14:55:00.579Z,100497.09
2022-12-11T14:57:28.913Z,100528.91
2022-12-11T14:59:55.805Z,100498.03
2022-12-11T15:02:33.992Z,100531.16
2022-12-11T15:05:19.523Z,100534.56
2022-12-11T15:08:00.834Z,100526.09
2022-12-11T15:10:32.072Z,100520.84
2022-12-11T15:12:58.909Z,100514.28
2022-12-11T15:15:25.799Z,100491.13
2022-12-11T15:17:53.153Z,100520.19
2022-12-11T15:20:27.996Z,100514.94
2022-12-11T15:22:54.976Z,100500.16
2022-12-11T15:25:23.389Z,100521.84
2022-12-11T15:27:57.179Z,100491.84
2022-12-11T15:30:27.323Z,100516.69
2022-12-11T15:33:12.574Z,100519.25
2022-12-11T15:35:39.929Z,100509.03
2022-12-11T15:38:06.760Z,100511.53
2022-12-11T15:40:33.598Z,100499.66
2022-12-11T15:43:01.529Z,100517.34
2022-12-11T15:45:29.083Z,100506.28
2022-12-11T15:47:56.141Z,100478.78
2022-12-11T15:50:23.798Z,100509.59
2022-12-11T15:52:51.508Z,100511.34
2022-12-11T15:55:18.675Z,100503.72
2022-12-11T15:57:47.294Z,100507.03
2022-12-11T16:00:14.912Z,100476.22
2022-12-11T16:02:41.968Z,100467.75
2022-12-11T16:05:09.405Z,100495.88
2022-12-11T16:07:38.180Z,100481.78
2022-12-11T16:10:06.214Z,100487.50
2022-12-11T16:12:33.193Z,100491.56
2022-12-11T16:15:00.076Z,100483.25
2022-12-11T16:17:27.059Z,100479.75
2022-12-11T16:19:54.323Z,100467.81
2022-12-11T16:22:21.302Z,100468.63
2022-12-11T16:24:48.273Z,100469.28
2022-12-11T16:27:21.410Z,100451.69
2022-12-11T16:29:49.988Z,100467.69
2022-12-11T16:32:17.194Z,100458.50
2022-12-11T16:34:44.165Z,100467.63
2022-12-11T16:37:11.459Z,100429.44
2022-12-11T16:39:38.545Z,100448.81
2022-12-11T16:42:06.063Z,100442.38
2022-12-11T16:44:33.072Z,100447.44
2022-12-11T16:47:00.047Z,100452.88
2022-12-11T16:49:27.062Z,100425.97
2022-12-11T16:51:54.053Z,100430.97
2022-12-11T16:54:20.990Z,100436.31
2022-12-11T16:56:48.343Z,100443.16
2022-12-11T16:59:15.228Z,100444.81
2022-12-11T17:01:42.237Z,100416.31
2022-12-11T17:04:10.230Z,100435.31
2022-12-11T17:06:37.099Z,100442.13
2022-12-11T17:09:04.076Z,100408.78
2022-12-11T17:11:30.976Z,100419.38
2022-12-11T17:13:58.533Z,100404.19
2022-12-11T17:16:26.571Z,100412.09
2022-12-11T17:18:53.775Z,100415.63
2022-12-11T17:21:21.020Z,100406.31
2022-12-11T17:23:48.076Z,100411.19
2022-12-11T17:26:15.653Z,100398.97
2022-12-11T17:28:43.177Z,100405.78
2022-12-11T17:31:14.505Z,100412.03
2022-12-11T17:33:41.552Z,100409.53
2022-12-11T17:36:09.071Z,100390.66
2022-12-11T17:38:36.031Z,100388.09
2022-12-11T17:41:11.416Z,100402.38
2022-12-11T17:43:41.922Z,100394.63
2022-12-11T17:46:10.825Z,100388.66
2022-12-11T17:48:37.918Z,100401.34
2022-12-11T17:51:06.353Z,100397.84
2022-12-11T17:53:33.469Z,100385.41
2022-12-11T17:56:01.088Z,100362.56
2022-12-11T17:58:28.094Z,100393.06
2022-12-11T18:00:55.894Z,100393.59
2022-12-11T18:03:22.845Z,100404.13
2022-12-11T18:05:51.420Z,100378.75
2022-12-11T18:08:20.955Z,100370.03
2022-12-11T18:10:47.878Z,100392.88
2022-12-11T18:13:15.133Z,100395.34
2022-12-11T18:15:42.201Z,100381.09
2022-12-11T18:18:09.488Z,100383.38
2022-12-11T18:20:37.555Z,100384.88
2022-12-11T18:23:04.921Z,100389.19
2022-12-11T18:25:31.886Z,100342.66
2022-12-11T18:27:59.863Z,100383.94
2022-12-11T18:30:26.872Z,100374.84
2022-12-11T18:32:53.882Z,100377.31
2022-12-11T18:35:21.471Z,100372.91
2022-12-11T18:37:48.514Z,100366.44
2022-12-11T18:40:15.506Z,100384.97
2022-12-11T18:42:43.929Z,100361.28
2022-12-11T18:45:11.417Z,100348.47
2022-12-11T18:47:38.595Z,100362.28
2022-12-11T18:50:08.175Z,100357.31
2022-12-11T18:52:35.593Z,100332.53
2022-12-11T18:55:02.636Z,100363.13
2022-12-11T18:57:29.499Z,100353.75
2022-12-11T18:59:56.354Z,100358.72
2022-12-11T19:02:23.354Z,100351.16
2022-12-11T19:04:50.256Z,100344.53
2022-12-11T19:07:17.174Z,100340.19
2022-12-11T19:09:48.120Z,100345.00
2022-12-11T19:12:15.454Z,100336.81
2022-12-11T19:14:42.295Z,100341.50
2022-12-11T19:17:09.080Z,100334.94
2022-12-11T19:19:36.275Z,100329.13
2022-12-11T19:22:03.539Z,100331.00
2022-12-11T19:24:30.576Z,100334.03
2022-12-11T19:26:57.666Z,100330.63
2022-12-11T19:29:26.726Z,100341.50
2022-12-11T19:31:55.245Z,100320.56
2022-12-11T19:34:22.578Z,100342.13
2022-12-11T19:36:49.543Z,100324.53
2022-12-11T19:39:16.476Z,100336.88
2022-12-11T19:41:43.437Z,100345.72
2022-12-11T19:44:10.321Z,100337.72
2022-12-11T19:46:37.355Z,100330.25
2022-12-11T19:49:04.355Z,100336.69
2022-12-11T19:51:33.976Z,100342.59
2022-12-11T19:54:03.024Z,100335.03
2022-12-11T19:56:29.953Z,100339.91
2022-12-11T19:58:56.856Z,100339.25
2022-12-11T20:01:26.496Z,100333.84
2022-12-11T20:03:53.781Z,100335.59
2022-12-11T20:06:20.622Z,100333.84
2022-12-11T20:08:47.643Z,100341.47
2022-12-11T20:11:18.346Z,100322.13
2022-12-11T20:13:46.114Z,100315.50
2022-12-11T20:16:13.278Z,100318.09
2022-12-11T20:18:40.194Z,100332.09
2022-12-11T20:21:08.878Z,100326.09
2022-12-11T20:23:35.976Z,100328.56
2022-12-11T20:26:07.836Z,100324.34
2022-12-11T20:28:34.707Z,100321.19
2022-12-11T20:31:20.019Z,100328.69
2022-12-11T20:33:48.854Z,100335.50
2022-12-11T20:36:16.450Z,100334.66
2022-12-11T20:38:43.544Z,100329.50
2022-12-11T20:41:11.569Z,100320.84
2022-12-11T20:43:38.369Z,100317.53
2022-12-11T20:46:06.581Z,100306.28
2022-12-11T20:48:33.561Z,100312.16
2022-12-11T20:51:04.156Z,100313.84
2022-12-11T20:53:31.153Z,100300.50
2022-12-11T20:55:58.114Z,100308.56
2022-12-11T20:58:25.425Z,100299.56
2022-12-11T21:00:52.483Z,100291.94
2022-12-11T21:03:19.537Z,100289.53
2022-12-11T21:05:46.653Z,100310.34
2022-12-11T21:08:13.684Z,100303.59
2022-12-11T21:10:44.432Z,100292.13
2022-12-11T21:13:11.520Z,100316.25
2022-12-11T21:15:39.428Z,100310.34
2022-12-11T21:18:07.037Z,100301.03
2022-12-11T21:20:34.222Z,100295.38
2022-12-11T21:23:01.606Z,100287.88
2022-12-11T21:25:28.615Z,100294.66
2022-12-11T21:27:55.663Z,100277.81
2022-12-11T21:30:22.694Z,100281.97
2022-12-11T21:32:49.612Z,100283.41
2022-12-11T21:35:16.811Z,100286.94
2022-12-11T21:37:43.938Z,100280.84
2022-12-11T21:40:11.374Z,100275.03
2022-12-11T21:42:38.376Z,100278.38
2022-12-11T21:47:52.821Z,100274.97
2022-12-11T21:50:19.739Z,100267.59
2022-12-11T21:52:46.742Z,100270.50
2022-12-11T21:55:14.149Z,100232.66
2022-12-11T21:57:41.217Z,100281.78
2022-12-11T22:00:09.549Z,100268.75
2022-12-11T22:02:40.845Z,100259.47
2022-12-11T22:05:09.095Z,100265.28
2022-12-11T22:07:36.221Z,100232.00
2022-12-11T22:10:04.056Z,100260.56
2022-12-11T22:12:30.932Z,100271.63
2022-12-11T22:14:57.836Z,100253.97
2022-12-11T22:17:24.802Z,100245.50
2022-12-11T22:19:54.436Z,100253.78
2022-12-11T22:22:21.273Z,100246.84
2022-12-11T22:24:48.238Z,100245.09
2022-12-11T22:27:17.907Z,100244.19
2022-12-11T22:29:48.929Z,100204.91
2022-12-11T22:32:15.755Z,100234.69
2022-12-11T22:34:42.607Z,100231.19
2022-12-11T22:37:09.482Z,100230.25
2022-12-11T22:39:36.365Z,100220.88
2022-12-11T22:42:03.436Z,100217.66
2022-12-11T22:44:30.253Z,100219.75
2022-12-11T22:46:57.604Z,100215.81
2022-12-11T22:49:24.471Z,100219.56
2022-12-11T22:51:51.336Z,100221.41
2022-12-11T22:54:18.199Z,100225.34
2022-12-11T22:56:45.153Z,100221.84
2022-12-11T22:59:12.142Z,100217.59
2022-12-11T23:01:39.014Z,100204.91
2022-12-11T23:04:06.132Z,100206.28
2022-12-11T23:06:33.056Z,100201.41
2022-12-11T23:09:00.505Z,100210.59
2022-12-11T23:11:36.408Z,100213.91
2022-12-11T23:14:04.498Z,100195.41
2022-12-11T23:16:31.380Z,100199.03
2022-12-11T23:18:58.395Z,100208.75
2022-12-11T23:21:25.763Z,100212.16
2022-12-11T23:23:52.596Z,100198.84
2022-12-11T23:26:19.756Z,100208.09
2022-12-11T23:28:46.751Z,100198.59
2022-12-11T23:31:13.765Z,100213.50
2022-12-11T23:33:40.756Z,100209.09
2022-12-11T23:36:08.111Z,100208.16
2022-12-11T23:38:35.015Z,100210.75
2022-12-11T23:41:02.392Z,100204.84
2022-12-11T23:43:29.282Z,100191.41
2022-12-11T23:45:56.148Z,100182.22
2022-12-11T23:48:23.114Z,100188.22
2022-12-11T23:50:49.957Z,100196.28
2022-12-11T23:53:16.791Z,100202.19
2022-12-11T23:55:44.398Z,100200.41
2022-12-11T23:58:11.353Z,100200.41
